ICE606 CYHZ-BIKF
Flight info
| Callsign | ICE606 |
|---|---|
| Flight time | 3h 53m |
| Altitude | 35000 |
| Route | KATLO DCT CADIL DCT PELTU DCT 55N050W 60N040W 63N030W DCT EPENI DCT ELDIS ELDIS4K |
| Aircraft | A21N/M-SDE3FGHIRWY/LB1 |
Departure
| Time | 2026-04-27 23:32 |
|---|---|
| Airport | Halifax / Stanfield International Airport (CYHZ) |
Arrival
| Time | 2026-04-28 03:25 |
|---|---|
| Airport | Keflavik International Airport (BIKF) |
| Time | Latitude | Longitude | Altitude | Speed | Heading |
|---|---|---|---|---|---|
| 2026-04-27 23:06 | 44.88549 | -63.51355 | 457 ft | 0 kts | 269° |
| 2026-04-27 23:21 | 44.88549 | -63.51334 | 460 ft | 2 kts | 269° |
| 2026-04-27 23:22 | 44.88550 | -63.51313 | 460 ft | 2 kts | 267° |
| 2026-04-27 23:22 | 44.88551 | -63.51292 | 460 ft | 2 kts | 268° |
| 2026-04-27 23:22 | 44.88551 | -63.51271 | 460 ft | 2 kts | 268° |
| 2026-04-27 23:22 | 44.88551 | -63.51250 | 460 ft | 2 kts | 268° |
| 2026-04-27 23:23 | 44.88551 | -63.51234 | 460 ft | 1 kts | 303° |
| 2026-04-27 23:23 | 44.88546 | -63.51228 | 460 ft | 0 kts | 348° |
| 2026-04-27 23:23 | 44.88553 | -63.51231 | 460 ft | 4 kts | 341° |
| 2026-04-27 23:23 | 44.88564 | -63.51235 | 460 ft | 0 kts | 348° |
| 2026-04-27 23:25 | 44.88569 | -63.51236 | 460 ft | 1 kts | 350° |
| 2026-04-27 23:25 | 44.88582 | -63.51238 | 460 ft | 2 kts | 353° |
| 2026-04-27 23:26 | 44.88609 | -63.51244 | 460 ft | 5 kts | 351° |
| 2026-04-27 23:26 | 44.88663 | -63.51255 | 460 ft | 9 kts | 350° |
| 2026-04-27 23:26 | 44.88742 | -63.51275 | 459 ft | 12 kts | 349° |
| 2026-04-27 23:26 | 44.88834 | -63.51297 | 458 ft | 14 kts | 350° |
| 2026-04-27 23:27 | 44.88934 | -63.51322 | 457 ft | 14 kts | 352° |
| 2026-04-27 23:27 | 44.89012 | -63.51362 | 457 ft | 12 kts | 307° |
| 2026-04-27 23:27 | 44.89062 | -63.51462 | 455 ft | 12 kts | 304° |
| 2026-04-27 23:27 | 44.89108 | -63.51554 | 454 ft | 11 kts | 304° |
| 2026-04-27 23:28 | 44.89158 | -63.51650 | 450 ft | 10 kts | 304° |
| 2026-04-27 23:28 | 44.89189 | -63.51722 | 446 ft | 6 kts | 303° |
| 2026-04-27 23:28 | 44.89223 | -63.51783 | 442 ft | 10 kts | 312° |
| 2026-04-27 23:28 | 44.89261 | -63.51813 | 439 ft | 0 kts | 357° |
| 2026-04-27 23:29 | 44.89262 | -63.51813 | 439 ft | 0 kts | 357° |
| 2026-04-27 23:30 | 44.89264 | -63.51813 | 439 ft | 1 kts | 359° |
| 2026-04-27 23:30 | 44.89288 | -63.51805 | 440 ft | 4 kts | 27° |
| 2026-04-27 23:31 | 44.89333 | -63.51764 | 442 ft | 10 kts | 34° |
| 2026-04-27 23:31 | 44.89328 | -63.51654 | 447 ft | 26 kts | 124° |
| 2026-04-27 23:31 | 44.89070 | -63.51140 | 456 ft | 100 kts | 125° |
| 2026-04-27 23:31 | 44.88559 | -63.50106 | 500 ft | 151 kts | 124° |
| 2026-04-27 23:32 | 44.87943 | -63.48840 | 1000 ft | 156 kts | 126° |
| 2026-04-27 23:32 | 44.87312 | -63.47568 | 1506 ft | 168 kts | 126° |
| 2026-04-27 23:32 | 44.86604 | -63.46158 | 1965 ft | 187 kts | 126° |
| 2026-04-27 23:32 | 44.85823 | -63.44605 | 2439 ft | 200 kts | 126° |
| 2026-04-27 23:33 | 44.85238 | -63.42782 | 2760 ft | 218 kts | 94° |
| 2026-04-27 23:33 | 44.85632 | -63.40649 | 3079 ft | 240 kts | 54° |
| 2026-04-27 23:33 | 44.86953 | -63.39154 | 3441 ft | 257 kts | 27° |
| 2026-04-27 23:33 | 44.88609 | -63.38084 | 4020 ft | 265 kts | 25° |
| 2026-04-27 23:34 | 44.90295 | -63.36996 | 4764 ft | 266 kts | 27° |
| 2026-04-27 23:34 | 44.91943 | -63.35841 | 5503 ft | 267 kts | 29° |
| 2026-04-27 23:34 | 44.93579 | -63.34618 | 6204 ft | 269 kts | 31° |
| 2026-04-27 23:34 | 44.95221 | -63.33338 | 6865 ft | 272 kts | 31° |
| 2026-04-27 23:35 | 44.96867 | -63.32027 | 7496 ft | 275 kts | 31° |
| 2026-04-27 23:35 | 44.98515 | -63.30700 | 8108 ft | 278 kts | 31° |
| 2026-04-27 23:35 | 45.00200 | -63.29334 | 8721 ft | 281 kts | 31° |
| 2026-04-27 23:35 | 45.01902 | -63.27951 | 9319 ft | 284 kts | 31° |
| 2026-04-27 23:36 | 45.03629 | -63.26543 | 9905 ft | 287 kts | 31° |
| 2026-04-27 23:36 | 45.05347 | -63.25139 | 10398 ft | 293 kts | 30° |
| 2026-04-27 23:36 | 45.07155 | -63.23660 | 10669 ft | 308 kts | 30° |
| 2026-04-27 23:36 | 45.09045 | -63.22113 | 10959 ft | 320 kts | 30° |
| 2026-04-27 23:37 | 45.10986 | -63.20523 | 11439 ft | 326 kts | 30° |
| 2026-04-27 23:37 | 45.12973 | -63.18893 | 12004 ft | 328 kts | 30° |
| 2026-04-27 23:37 | 45.14885 | -63.17194 | 12537 ft | 331 kts | 34° |
| 2026-04-27 23:37 | 45.16789 | -63.15348 | 13066 ft | 334 kts | 34° |
| 2026-04-27 23:38 | 45.18713 | -63.13455 | 13586 ft | 336 kts | 34° |
| 2026-04-27 23:38 | 45.20637 | -63.11563 | 14091 ft | 339 kts | 34° |
| 2026-04-27 23:38 | 45.21923 | -63.10303 | 14420 ft | 341 kts | 34° |
| 2026-04-27 23:38 | 45.23012 | -63.09238 | 14688 ft | 342 kts | 34° |
| 2026-04-27 23:39 | 45.25001 | -63.07296 | 15152 ft | 346 kts | 34° |
| 2026-04-27 23:39 | 45.26994 | -63.05352 | 15597 ft | 349 kts | 34° |
| 2026-04-27 23:39 | 45.28979 | -63.03420 | 16032 ft | 353 kts | 34° |
| 2026-04-27 23:39 | 45.31014 | -63.01427 | 16448 ft | 356 kts | 34° |
| 2026-04-27 23:40 | 45.33068 | -62.99421 | 16869 ft | 359 kts | 34° |
| 2026-04-27 23:40 | 45.35142 | -62.97398 | 17282 ft | 363 kts | 34° |
| 2026-04-27 23:40 | 45.37209 | -62.95381 | 17673 ft | 366 kts | 34° |
| 2026-04-27 23:40 | 45.39329 | -62.93310 | 18003 ft | 371 kts | 34° |
| 2026-04-27 23:41 | 45.41465 | -62.91221 | 18372 ft | 375 kts | 34° |
| 2026-04-27 23:41 | 45.43616 | -62.89114 | 18757 ft | 378 kts | 34° |
| 2026-04-27 23:41 | 45.45762 | -62.87009 | 19129 ft | 380 kts | 34° |
| 2026-04-27 23:41 | 45.47943 | -62.84869 | 19495 ft | 383 kts | 34° |
| 2026-04-27 23:42 | 45.50144 | -62.82706 | 19855 ft | 386 kts | 34° |
| 2026-04-27 23:42 | 45.52374 | -62.80513 | 20213 ft | 389 kts | 34° |
| 2026-04-27 23:42 | 45.54606 | -62.78315 | 20563 ft | 391 kts | 34° |
| 2026-04-27 23:42 | 45.56846 | -62.76108 | 20905 ft | 394 kts | 34° |
| 2026-04-27 23:43 | 45.59099 | -62.73885 | 21248 ft | 396 kts | 34° |
| 2026-04-27 23:43 | 45.61338 | -62.71675 | 21613 ft | 397 kts | 34° |
| 2026-04-27 23:43 | 45.63617 | -62.69422 | 22008 ft | 397 kts | 34° |
| 2026-04-27 23:43 | 45.65889 | -62.67175 | 22351 ft | 399 kts | 34° |
| 2026-04-27 23:44 | 45.68185 | -62.64900 | 22669 ft | 402 kts | 34° |
| 2026-04-27 23:44 | 45.70479 | -62.62626 | 22979 ft | 404 kts | 34° |
| 2026-04-27 23:44 | 45.72778 | -62.60344 | 23287 ft | 407 kts | 34° |
| 2026-04-27 23:44 | 45.75119 | -62.58019 | 23588 ft | 409 kts | 34° |
| 2026-04-27 23:45 | 45.77438 | -62.55712 | 23883 ft | 411 kts | 34° |
| 2026-04-27 23:45 | 45.79796 | -62.53365 | 24180 ft | 413 kts | 34° |
| 2026-04-27 23:45 | 45.82157 | -62.51012 | 24471 ft | 415 kts | 34° |
| 2026-04-27 23:45 | 45.84529 | -62.48645 | 24754 ft | 417 kts | 34° |
| 2026-04-27 23:46 | 45.86901 | -62.46274 | 25032 ft | 420 kts | 34° |
| 2026-04-27 23:46 | 45.89311 | -62.43864 | 25316 ft | 422 kts | 34° |
| 2026-04-27 23:46 | 45.91719 | -62.41454 | 25611 ft | 424 kts | 34° |
| 2026-04-27 23:46 | 45.94108 | -62.39060 | 25882 ft | 426 kts | 33° |
| 2026-04-27 23:47 | 45.96553 | -62.36606 | 26126 ft | 429 kts | 33° |
| 2026-04-27 23:47 | 45.98988 | -62.34161 | 26358 ft | 432 kts | 34° |
| 2026-04-27 23:47 | 46.01482 | -62.31654 | 26584 ft | 435 kts | 34° |
| 2026-04-27 23:47 | 46.03966 | -62.29155 | 26799 ft | 438 kts | 34° |
| 2026-04-27 23:48 | 46.06440 | -62.26662 | 27018 ft | 441 kts | 34° |
| 2026-04-27 23:48 | 46.08963 | -62.24115 | 27238 ft | 444 kts | 34° |
| 2026-04-27 23:48 | 46.11507 | -62.21542 | 27448 ft | 446 kts | 34° |
| 2026-04-27 23:48 | 46.14020 | -62.18995 | 27652 ft | 449 kts | 33° |
| 2026-04-27 23:49 | 46.16589 | -62.16408 | 27846 ft | 451 kts | 34° |
| 2026-04-27 23:49 | 46.19178 | -62.13785 | 28031 ft | 454 kts | 33° |
| 2026-04-27 23:49 | 46.21756 | -62.11161 | 28217 ft | 457 kts | 33° |
| 2026-04-27 23:49 | 46.24361 | -62.08497 | 28407 ft | 459 kts | 33° |
| 2026-04-27 23:50 | 46.26969 | -62.05847 | 28599 ft | 462 kts | 33° |
| 2026-04-27 23:50 | 46.29599 | -62.03174 | 28785 ft | 464 kts | 33° |
| 2026-04-27 23:50 | 46.32233 | -62.00494 | 29014 ft | 465 kts | 33° |
| 2026-04-27 23:50 | 46.34852 | -61.97819 | 29247 ft | 466 kts | 33° |
| 2026-04-27 23:51 | 46.37502 | -61.95114 | 29455 ft | 468 kts | 33° |
| 2026-04-27 23:51 | 46.40181 | -61.92381 | 29634 ft | 470 kts | 33° |
| 2026-04-27 23:51 | 46.42822 | -61.89677 | 29844 ft | 472 kts | 33° |
| 2026-04-27 23:51 | 46.45507 | -61.86914 | 30031 ft | 475 kts | 33° |
| 2026-04-27 23:52 | 46.48203 | -61.84148 | 30185 ft | 479 kts | 33° |
| 2026-04-27 23:52 | 46.50944 | -61.81331 | 30367 ft | 482 kts | 32° |
| 2026-04-27 23:52 | 46.53671 | -61.78521 | 30567 ft | 484 kts | 32° |
| 2026-04-27 23:52 | 46.56408 | -61.75701 | 30763 ft | 485 kts | 32° |
| 2026-04-27 23:53 | 46.59155 | -61.72869 | 30980 ft | 486 kts | 33° |
| 2026-04-27 23:53 | 46.61914 | -61.70024 | 31204 ft | 487 kts | 33° |
| 2026-04-27 23:53 | 46.64681 | -61.67169 | 31433 ft | 488 kts | 33° |
| 2026-04-27 23:53 | 46.67447 | -61.64305 | 31687 ft | 488 kts | 33° |
| 2026-04-27 23:54 | 46.70177 | -61.61470 | 31984 ft | 487 kts | 33° |
| 2026-04-27 23:54 | 46.72941 | -61.58595 | 32323 ft | 484 kts | 33° |
| 2026-04-27 23:54 | 46.75634 | -61.55789 | 32651 ft | 482 kts | 33° |
| 2026-04-27 23:54 | 46.78353 | -61.52954 | 32998 ft | 480 kts | 34° |
| 2026-04-27 23:55 | 46.81053 | -61.50137 | 33344 ft | 477 kts | 34° |
| 2026-04-27 23:55 | 46.83747 | -61.47324 | 33693 ft | 475 kts | 34° |
| 2026-04-27 23:55 | 46.86425 | -61.44526 | 34038 ft | 472 kts | 34° |
| 2026-04-27 23:55 | 46.89077 | -61.41750 | 34382 ft | 470 kts | 34° |
| 2026-04-27 23:56 | 46.91698 | -61.39003 | 34710 ft | 468 kts | 34° |
| 2026-04-27 23:56 | 46.94334 | -61.36238 | 35030 ft | 466 kts | 34° |
| 2026-04-27 23:56 | 46.96982 | -61.33457 | 35325 ft | 465 kts | 35° |
| 2026-04-27 23:56 | 46.99584 | -61.30721 | 35428 ft | 468 kts | 36° |
| 2026-04-27 23:57 | 47.04848 | -61.25174 | 35490 ft | 467 kts | 36° |
| 2026-04-27 23:57 | 47.10113 | -61.19612 | 35445 ft | 464 kts | 36° |
| 2026-04-27 23:58 | 47.15305 | -61.14113 | 35408 ft | 464 kts | 36° |
| 2026-04-27 23:58 | 47.20550 | -61.08545 | 35397 ft | 467 kts | 36° |
| 2026-04-27 23:59 | 47.25817 | -61.02940 | 35393 ft | 467 kts | 36° |
| 2026-04-27 23:59 | 47.31043 | -60.97365 | 35395 ft | 467 kts | 36° |
| 2026-04-28 00:00 | 47.36306 | -60.91735 | 35396 ft | 466 kts | 36° |
| 2026-04-28 00:00 | 47.41531 | -60.86132 | 35396 ft | 466 kts | 37° |
| 2026-04-28 00:01 | 47.46721 | -60.80554 | 35396 ft | 465 kts | 37° |
| 2026-04-28 00:01 | 47.51955 | -60.74916 | 35396 ft | 465 kts | 37° |
| 2026-04-28 00:02 | 47.57180 | -60.69273 | 35395 ft | 465 kts | 37° |
| 2026-04-28 00:02 | 47.62367 | -60.63656 | 35394 ft | 465 kts | 37° |
| 2026-04-28 00:03 | 47.67579 | -60.57996 | 35394 ft | 465 kts | 37° |
| 2026-04-28 00:03 | 47.72783 | -60.52331 | 35393 ft | 465 kts | 37° |
| 2026-04-28 00:04 | 47.80567 | -60.43832 | 35393 ft | 464 kts | 37° |
| 2026-04-28 00:05 | 47.85735 | -60.38171 | 35392 ft | 465 kts | 37° |
| 2026-04-28 00:05 | 47.90959 | -60.32436 | 35392 ft | 469 kts | 38° |
| 2026-04-28 00:06 | 47.96250 | -60.26611 | 35391 ft | 475 kts | 38° |
| 2026-04-28 00:06 | 48.01533 | -60.20780 | 35390 ft | 476 kts | 38° |
| 2026-04-28 00:07 | 48.06829 | -60.14919 | 35389 ft | 476 kts | 38° |
| 2026-04-28 00:07 | 48.12137 | -60.09029 | 35387 ft | 476 kts | 38° |
| 2026-04-28 00:08 | 48.17438 | -60.03131 | 35386 ft | 476 kts | 38° |
| 2026-04-28 00:08 | 48.22717 | -59.97240 | 35383 ft | 476 kts | 38° |
| 2026-04-28 00:09 | 48.28047 | -59.91272 | 35339 ft | 480 kts | 38° |
| 2026-04-28 00:09 | 48.33400 | -59.85264 | 35330 ft | 484 kts | 37° |
| 2026-04-28 00:10 | 48.38791 | -59.79207 | 35375 ft | 484 kts | 37° |
| 2026-04-28 00:10 | 48.44139 | -59.73180 | 35387 ft | 484 kts | 37° |
| 2026-04-28 00:11 | 48.49502 | -59.67119 | 35389 ft | 485 kts | 37° |
| 2026-04-28 00:11 | 48.54894 | -59.61007 | 35389 ft | 485 kts | 37° |
| 2026-04-28 00:12 | 48.60283 | -59.54881 | 35388 ft | 485 kts | 37° |
| 2026-04-28 00:12 | 48.65633 | -59.48781 | 35389 ft | 485 kts | 37° |
| 2026-04-28 00:13 | 48.71019 | -59.42626 | 35388 ft | 485 kts | 37° |
| 2026-04-28 00:13 | 48.76380 | -59.36482 | 35388 ft | 485 kts | 37° |
| 2026-04-28 00:14 | 48.81731 | -59.30332 | 35387 ft | 485 kts | 37° |
| 2026-04-28 00:14 | 48.87112 | -59.24130 | 35386 ft | 486 kts | 37° |
| 2026-04-28 00:15 | 48.92443 | -59.17969 | 35385 ft | 486 kts | 37° |
| 2026-04-28 00:15 | 48.97805 | -59.11755 | 35384 ft | 486 kts | 37° |
| 2026-04-28 00:16 | 49.03182 | -59.05508 | 35383 ft | 486 kts | 37° |
| 2026-04-28 00:16 | 49.08524 | -58.99282 | 35382 ft | 486 kts | 37° |
| 2026-04-28 00:17 | 49.13878 | -58.93025 | 35380 ft | 486 kts | 37° |
| 2026-04-28 00:17 | 49.19247 | -58.86734 | 35381 ft | 489 kts | 37° |
| 2026-04-28 00:18 | 49.24638 | -58.80397 | 35383 ft | 492 kts | 37° |
| 2026-04-28 00:18 | 49.30041 | -58.74027 | 35388 ft | 493 kts | 37° |
| 2026-04-28 00:19 | 49.35460 | -58.67622 | 35391 ft | 493 kts | 37° |
| 2026-04-28 00:19 | 49.40877 | -58.61200 | 35391 ft | 493 kts | 37° |
| 2026-04-28 00:20 | 49.46277 | -58.54781 | 35390 ft | 493 kts | 37° |
| 2026-04-28 00:20 | 49.51683 | -58.48337 | 35390 ft | 493 kts | 37° |
| 2026-04-28 00:21 | 49.57103 | -58.41859 | 35389 ft | 494 kts | 37° |
| 2026-04-28 00:21 | 49.62481 | -58.35411 | 35389 ft | 494 kts | 37° |
| 2026-04-28 00:22 | 49.67890 | -58.28907 | 35389 ft | 494 kts | 37° |
| 2026-04-28 00:22 | 49.73280 | -58.22407 | 35389 ft | 495 kts | 37° |
| 2026-04-28 00:23 | 49.78684 | -58.15871 | 35390 ft | 495 kts | 37° |
| 2026-04-28 00:23 | 49.84098 | -58.09305 | 35391 ft | 495 kts | 37° |
| 2026-04-28 00:24 | 49.89510 | -58.02721 | 35392 ft | 495 kts | 37° |
| 2026-04-28 00:24 | 49.94890 | -57.96159 | 35391 ft | 495 kts | 37° |
| 2026-04-28 00:25 | 50.00270 | -57.89576 | 35390 ft | 495 kts | 37° |
| 2026-04-28 00:25 | 50.05683 | -57.82934 | 35393 ft | 495 kts | 37° |
| 2026-04-28 00:26 | 50.11073 | -57.76300 | 35394 ft | 495 kts | 37° |
| 2026-04-28 00:26 | 50.16445 | -57.69669 | 35392 ft | 495 kts | 37° |
| 2026-04-28 00:27 | 50.21825 | -57.63007 | 35389 ft | 496 kts | 37° |
| 2026-04-28 00:27 | 50.27214 | -57.56314 | 35392 ft | 496 kts | 37° |
| 2026-04-28 00:28 | 50.32577 | -57.49634 | 35392 ft | 496 kts | 37° |
| 2026-04-28 00:28 | 50.37972 | -57.42893 | 35386 ft | 496 kts | 36° |
| 2026-04-28 00:29 | 50.43334 | -57.36175 | 35381 ft | 497 kts | 36° |
| 2026-04-28 00:29 | 50.48700 | -57.29433 | 35381 ft | 497 kts | 37° |
| 2026-04-28 00:30 | 50.54099 | -57.22626 | 35384 ft | 498 kts | 37° |
| 2026-04-28 00:30 | 50.59483 | -57.15818 | 35377 ft | 498 kts | 37° |
| 2026-04-28 00:31 | 50.64840 | -57.09024 | 35365 ft | 499 kts | 37° |
| 2026-04-28 00:31 | 50.70237 | -57.02160 | 35352 ft | 499 kts | 36° |
| 2026-04-28 00:32 | 50.75594 | -56.95325 | 35339 ft | 499 kts | 36° |
| 2026-04-28 00:32 | 50.80989 | -56.88423 | 35341 ft | 500 kts | 36° |
| 2026-04-28 00:33 | 50.86366 | -56.81521 | 35349 ft | 500 kts | 36° |
| 2026-04-28 00:33 | 50.91754 | -56.74583 | 35358 ft | 500 kts | 36° |
| 2026-04-28 00:34 | 50.97125 | -56.67647 | 35363 ft | 500 kts | 36° |
| 2026-04-28 00:34 | 51.02495 | -56.60690 | 35366 ft | 500 kts | 36° |
| 2026-04-28 00:35 | 51.07849 | -56.53729 | 35368 ft | 501 kts | 36° |
| 2026-04-28 00:35 | 51.13239 | -56.46700 | 35370 ft | 501 kts | 36° |
| 2026-04-28 00:36 | 51.18617 | -56.39668 | 35375 ft | 502 kts | 36° |
| 2026-04-28 00:36 | 51.23998 | -56.32610 | 35378 ft | 502 kts | 36° |
| 2026-04-28 00:37 | 51.29347 | -56.25570 | 35383 ft | 502 kts | 36° |
| 2026-04-28 00:37 | 51.34718 | -56.18479 | 35385 ft | 503 kts | 36° |
| 2026-04-28 00:38 | 51.40108 | -56.11342 | 35386 ft | 503 kts | 36° |
| 2026-04-28 00:38 | 51.45454 | -56.04241 | 35387 ft | 503 kts | 36° |
| 2026-04-28 00:39 | 51.50851 | -55.97050 | 35386 ft | 504 kts | 36° |
| 2026-04-28 00:39 | 51.56214 | -55.89881 | 35386 ft | 504 kts | 36° |
| 2026-04-28 00:40 | 51.61543 | -55.82735 | 35385 ft | 504 kts | 35° |
| 2026-04-28 00:40 | 51.66920 | -55.75500 | 35384 ft | 504 kts | 35° |
| 2026-04-28 00:41 | 51.72289 | -55.68255 | 35386 ft | 504 kts | 35° |
| 2026-04-28 00:41 | 51.77608 | -55.61055 | 35387 ft | 504 kts | 35° |
| 2026-04-28 00:42 | 51.82953 | -55.53793 | 35380 ft | 495 kts | 35° |
| 2026-04-28 00:42 | 51.85533 | -55.50270 | 35381 ft | 483 kts | 35° |
| 2026-04-28 00:42 | 51.88080 | -55.46794 | 35381 ft | 481 kts | 35° |
| 2026-04-28 00:43 | 51.93189 | -55.39820 | 35380 ft | 481 kts | 35° |
| 2026-04-28 00:43 | 51.98266 | -55.32863 | 35377 ft | 481 kts | 36° |
| 2026-04-28 00:44 | 52.03350 | -55.25868 | 35378 ft | 481 kts | 36° |
| 2026-04-28 00:44 | 52.08439 | -55.18842 | 35377 ft | 481 kts | 36° |
| 2026-04-28 00:45 | 52.13330 | -55.11427 | 35375 ft | 485 kts | 40° |
| 2026-04-28 00:45 | 52.18119 | -55.03689 | 35374 ft | 487 kts | 40° |
| 2026-04-28 00:46 | 52.22919 | -54.95906 | 35376 ft | 488 kts | 39° |
| 2026-04-28 00:46 | 52.27692 | -54.88164 | 35376 ft | 488 kts | 39° |
| 2026-04-28 00:47 | 52.32482 | -54.80380 | 35377 ft | 488 kts | 39° |
| 2026-04-28 00:47 | 52.37292 | -54.72536 | 35377 ft | 487 kts | 39° |
| 2026-04-28 00:48 | 52.42067 | -54.64724 | 35374 ft | 487 kts | 39° |
| 2026-04-28 00:48 | 52.46818 | -54.56927 | 35368 ft | 487 kts | 39° |
| 2026-04-28 00:49 | 52.51577 | -54.49091 | 35363 ft | 487 kts | 39° |
| 2026-04-28 00:49 | 52.56347 | -54.41213 | 35361 ft | 486 kts | 39° |
| 2026-04-28 00:50 | 52.61079 | -54.33370 | 35357 ft | 486 kts | 39° |
| 2026-04-28 00:50 | 52.65821 | -54.25485 | 35355 ft | 487 kts | 39° |
| 2026-04-28 00:51 | 52.70586 | -54.17533 | 35353 ft | 487 kts | 39° |
| 2026-04-28 00:51 | 52.75328 | -54.09594 | 35351 ft | 487 kts | 39° |
| 2026-04-28 00:52 | 52.80057 | -54.01656 | 35349 ft | 487 kts | 39° |
| 2026-04-28 00:52 | 52.84790 | -53.93681 | 35346 ft | 488 kts | 39° |
| 2026-04-28 00:53 | 52.89486 | -53.85742 | 35341 ft | 488 kts | 39° |
| 2026-04-28 00:53 | 52.94237 | -53.77683 | 35338 ft | 487 kts | 39° |
| 2026-04-28 00:54 | 52.98934 | -53.69690 | 35339 ft | 488 kts | 39° |
| 2026-04-28 00:54 | 53.03677 | -53.61592 | 35338 ft | 489 kts | 38° |
| 2026-04-28 00:55 | 53.08418 | -53.53474 | 35337 ft | 490 kts | 38° |
| 2026-04-28 00:55 | 53.13127 | -53.45381 | 35335 ft | 490 kts | 38° |
| 2026-04-28 00:56 | 53.17857 | -53.37224 | 35334 ft | 490 kts | 38° |
| 2026-04-28 00:56 | 53.22585 | -53.29047 | 35331 ft | 492 kts | 39° |
| 2026-04-28 00:57 | 53.27314 | -53.20835 | 35331 ft | 492 kts | 39° |
| 2026-04-28 00:57 | 53.32004 | -53.12663 | 35330 ft | 493 kts | 39° |
| 2026-04-28 00:58 | 53.36726 | -53.04406 | 35328 ft | 493 kts | 39° |
| 2026-04-28 00:58 | 53.41457 | -52.96103 | 35326 ft | 492 kts | 38° |
| 2026-04-28 00:59 | 53.46137 | -52.87865 | 35320 ft | 492 kts | 38° |
| 2026-04-28 00:59 | 53.50849 | -52.79548 | 35313 ft | 493 kts | 38° |
| 2026-04-28 01:00 | 53.55541 | -52.71238 | 35308 ft | 493 kts | 38° |
| 2026-04-28 01:00 | 53.60243 | -52.62876 | 35305 ft | 492 kts | 38° |
| 2026-04-28 01:01 | 53.64931 | -52.54510 | 35301 ft | 493 kts | 38° |
| 2026-04-28 01:01 | 53.69605 | -52.46140 | 35295 ft | 493 kts | 38° |
| 2026-04-28 01:02 | 53.74295 | -52.37709 | 35291 ft | 494 kts | 38° |
| 2026-04-28 01:02 | 53.78986 | -52.29252 | 35287 ft | 494 kts | 38° |
| 2026-04-28 01:03 | 53.83644 | -52.20821 | 35287 ft | 495 kts | 38° |
| 2026-04-28 01:03 | 53.88329 | -52.12314 | 35287 ft | 495 kts | 38° |
| 2026-04-28 01:04 | 53.92996 | -52.03805 | 35284 ft | 495 kts | 38° |
| 2026-04-28 01:04 | 53.97657 | -51.95277 | 35280 ft | 496 kts | 38° |
| 2026-04-28 01:05 | 54.02354 | -51.86658 | 35275 ft | 496 kts | 38° |
| 2026-04-28 01:05 | 54.07017 | -51.78068 | 35270 ft | 496 kts | 38° |
| 2026-04-28 01:06 | 54.11677 | -51.69452 | 35262 ft | 496 kts | 38° |
| 2026-04-28 01:06 | 54.16322 | -51.60826 | 35256 ft | 496 kts | 38° |
| 2026-04-28 01:07 | 54.20944 | -51.52215 | 35242 ft | 496 kts | 38° |
| 2026-04-28 01:07 | 54.25581 | -51.43546 | 35228 ft | 494 kts | 38° |
| 2026-04-28 01:08 | 54.30184 | -51.34914 | 35214 ft | 493 kts | 39° |
| 2026-04-28 01:08 | 54.34794 | -51.26241 | 35205 ft | 493 kts | 39° |
| 2026-04-28 01:09 | 54.39374 | -51.17587 | 35197 ft | 492 kts | 39° |
| 2026-04-28 01:09 | 54.43972 | -51.08870 | 35191 ft | 492 kts | 39° |
| 2026-04-28 01:10 | 54.48505 | -51.00246 | 35185 ft | 491 kts | 39° |
| 2026-04-28 01:10 | 54.53060 | -50.91548 | 35179 ft | 490 kts | 39° |
| 2026-04-28 01:11 | 54.57590 | -50.82870 | 35175 ft | 489 kts | 39° |
| 2026-04-28 01:11 | 54.62105 | -50.74191 | 35169 ft | 488 kts | 39° |
| 2026-04-28 01:12 | 54.66624 | -50.65468 | 35164 ft | 488 kts | 39° |
| 2026-04-28 01:12 | 54.71110 | -50.56777 | 35158 ft | 487 kts | 39° |
| 2026-04-28 01:13 | 54.75594 | -50.48058 | 35152 ft | 486 kts | 39° |
| 2026-04-28 01:13 | 54.82295 | -50.34968 | 35141 ft | 485 kts | 40° |
| 2026-04-28 01:14 | 54.86732 | -50.26265 | 35133 ft | 486 kts | 40° |
| 2026-04-28 01:14 | 54.91194 | -50.17474 | 35125 ft | 486 kts | 40° |
| 2026-04-28 01:15 | 54.95634 | -50.08691 | 35117 ft | 486 kts | 40° |
| 2026-04-28 01:15 | 55.00128 | -49.99957 | 35107 ft | 482 kts | 37° |
| 2026-04-28 01:16 | 55.04918 | -49.91945 | 35100 ft | 478 kts | 34° |
| 2026-04-28 01:16 | 55.09758 | -49.84119 | 35086 ft | 477 kts | 34° |
| 2026-04-28 01:17 | 55.14608 | -49.76231 | 35076 ft | 482 kts | 34° |
| 2026-04-28 01:17 | 55.19492 | -49.68226 | 35071 ft | 484 kts | 34° |
| 2026-04-28 01:18 | 55.24374 | -49.60183 | 35065 ft | 484 kts | 34° |
| 2026-04-28 01:18 | 55.29276 | -49.52078 | 35057 ft | 484 kts | 34° |
| 2026-04-28 01:19 | 55.34127 | -49.44031 | 35050 ft | 484 kts | 35° |
| 2026-04-28 01:19 | 55.39021 | -49.35885 | 35044 ft | 484 kts | 35° |
| 2026-04-28 01:20 | 55.43866 | -49.27794 | 35038 ft | 485 kts | 36° |
| 2026-04-28 01:20 | 55.48752 | -49.19610 | 35033 ft | 485 kts | 36° |
| 2026-04-28 01:21 | 55.53618 | -49.11427 | 35026 ft | 485 kts | 36° |
| 2026-04-28 01:21 | 55.58461 | -49.03249 | 35018 ft | 485 kts | 36° |
| 2026-04-28 01:22 | 55.63290 | -48.95066 | 35010 ft | 484 kts | 36° |
| 2026-04-28 01:22 | 55.68143 | -48.86811 | 35000 ft | 483 kts | 36° |
| 2026-04-28 01:23 | 55.72951 | -48.78605 | 34991 ft | 483 kts | 36° |
| 2026-04-28 01:23 | 55.77774 | -48.70344 | 34981 ft | 483 kts | 36° |
| 2026-04-28 01:24 | 55.82574 | -48.62094 | 34972 ft | 483 kts | 36° |
| 2026-04-28 01:24 | 55.87380 | -48.53802 | 34962 ft | 482 kts | 36° |
| 2026-04-28 01:25 | 55.92170 | -48.45506 | 34954 ft | 482 kts | 36° |
| 2026-04-28 01:25 | 55.96930 | -48.37230 | 34946 ft | 481 kts | 36° |
| 2026-04-28 01:26 | 56.01709 | -48.28898 | 34938 ft | 482 kts | 37° |
| 2026-04-28 01:26 | 56.06510 | -48.20494 | 34928 ft | 483 kts | 37° |
| 2026-04-28 01:27 | 56.11259 | -48.12146 | 34920 ft | 482 kts | 37° |
| 2026-04-28 01:27 | 56.16019 | -48.03751 | 34925 ft | 482 kts | 37° |
| 2026-04-28 01:28 | 56.20790 | -47.95302 | 34926 ft | 482 kts | 37° |
| 2026-04-28 01:28 | 56.25518 | -47.86902 | 34918 ft | 482 kts | 37° |
| 2026-04-28 01:29 | 56.30267 | -47.78433 | 34910 ft | 482 kts | 38° |
| 2026-04-28 01:29 | 56.35024 | -47.69920 | 34898 ft | 482 kts | 38° |
| 2026-04-28 01:30 | 56.39733 | -47.61460 | 34889 ft | 482 kts | 38° |
| 2026-04-28 01:30 | 56.44472 | -47.52916 | 34877 ft | 482 kts | 38° |
| 2026-04-28 01:31 | 56.49154 | -47.44443 | 34867 ft | 482 kts | 38° |
| 2026-04-28 01:31 | 56.53893 | -47.35835 | 34858 ft | 482 kts | 38° |
| 2026-04-28 01:32 | 56.58588 | -47.27275 | 34850 ft | 482 kts | 39° |
| 2026-04-28 01:32 | 56.63301 | -47.18651 | 34845 ft | 482 kts | 39° |
| 2026-04-28 01:33 | 56.67998 | -47.10019 | 34839 ft | 482 kts | 39° |
| 2026-04-28 01:33 | 56.72668 | -47.01405 | 34835 ft | 482 kts | 39° |
| 2026-04-28 01:34 | 56.77365 | -46.92707 | 34830 ft | 482 kts | 39° |
| 2026-04-28 01:34 | 56.82026 | -46.84045 | 34826 ft | 482 kts | 39° |
| 2026-04-28 01:35 | 56.86713 | -46.75306 | 34821 ft | 482 kts | 40° |
| 2026-04-28 01:35 | 56.91369 | -46.66589 | 34815 ft | 482 kts | 40° |
| 2026-04-28 01:36 | 56.96029 | -46.57828 | 34809 ft | 482 kts | 40° |
| 2026-04-28 01:36 | 57.00663 | -46.49086 | 34802 ft | 482 kts | 40° |
| 2026-04-28 01:37 | 57.05315 | -46.40276 | 34795 ft | 482 kts | 40° |
| 2026-04-28 01:37 | 57.09945 | -46.31476 | 34789 ft | 483 kts | 41° |
| 2026-04-28 01:38 | 57.14595 | -46.22602 | 34784 ft | 483 kts | 41° |
| 2026-04-28 01:38 | 57.19226 | -46.13728 | 34777 ft | 483 kts | 41° |
| 2026-04-28 01:39 | 57.23886 | -46.04766 | 34771 ft | 483 kts | 41° |
| 2026-04-28 01:39 | 57.28496 | -45.95864 | 34765 ft | 483 kts | 41° |
| 2026-04-28 01:40 | 57.33136 | -45.86878 | 34760 ft | 483 kts | 41° |
| 2026-04-28 01:40 | 57.37746 | -45.77911 | 34757 ft | 484 kts | 41° |
| 2026-04-28 01:41 | 57.42354 | -45.68915 | 34753 ft | 484 kts | 41° |
| 2026-04-28 01:41 | 57.46958 | -45.59888 | 34753 ft | 485 kts | 42° |
| 2026-04-28 01:42 | 57.51579 | -45.50787 | 34752 ft | 485 kts | 42° |
| 2026-04-28 01:42 | 57.56170 | -45.41709 | 34751 ft | 484 kts | 42° |
| 2026-04-28 01:43 | 57.60773 | -45.32576 | 34747 ft | 485 kts | 43° |
| 2026-04-28 01:43 | 57.65358 | -45.23444 | 34737 ft | 485 kts | 43° |
| 2026-04-28 01:44 | 57.69947 | -45.14263 | 34697 ft | 485 kts | 43° |
| 2026-04-28 01:44 | 57.74539 | -45.05040 | 34655 ft | 486 kts | 43° |
| 2026-04-28 01:45 | 57.79110 | -44.95825 | 34639 ft | 486 kts | 43° |
| 2026-04-28 01:45 | 57.83670 | -44.86594 | 34630 ft | 486 kts | 43° |
| 2026-04-28 01:46 | 57.88252 | -44.77284 | 34624 ft | 486 kts | 43° |
| 2026-04-28 01:46 | 57.92815 | -44.67971 | 34617 ft | 487 kts | 43° |
| 2026-04-28 01:47 | 57.97384 | -44.58608 | 34611 ft | 487 kts | 43° |
| 2026-04-28 01:47 | 58.01920 | -44.49276 | 34606 ft | 487 kts | 44° |
| 2026-04-28 01:48 | 58.06478 | -44.39861 | 34601 ft | 487 kts | 44° |
| 2026-04-28 01:48 | 58.11038 | -44.30407 | 34581 ft | 487 kts | 45° |
| 2026-04-28 01:49 | 58.15564 | -44.20978 | 34570 ft | 488 kts | 45° |
| 2026-04-28 01:49 | 58.20130 | -44.11421 | 34593 ft | 488 kts | 45° |
| 2026-04-28 01:50 | 58.24665 | -44.01895 | 34605 ft | 489 kts | 45° |
| 2026-04-28 01:50 | 58.29181 | -43.92371 | 34601 ft | 489 kts | 45° |
| 2026-04-28 01:51 | 58.33720 | -43.82761 | 34598 ft | 489 kts | 45° |
| 2026-04-28 01:51 | 58.38240 | -43.73150 | 34588 ft | 489 kts | 45° |
| 2026-04-28 01:52 | 58.42751 | -43.63518 | 34581 ft | 490 kts | 45° |
| 2026-04-28 01:52 | 58.47279 | -43.53813 | 34574 ft | 490 kts | 45° |
| 2026-04-28 01:53 | 58.51762 | -43.44161 | 34570 ft | 490 kts | 45° |
| 2026-04-28 01:53 | 58.56290 | -43.34374 | 34567 ft | 490 kts | 46° |
| 2026-04-28 01:54 | 58.60776 | -43.24633 | 34565 ft | 491 kts | 46° |
| 2026-04-28 01:54 | 58.65247 | -43.14883 | 34568 ft | 491 kts | 46° |
| 2026-04-28 01:55 | 58.69760 | -43.05003 | 34568 ft | 491 kts | 46° |
| 2026-04-28 01:55 | 58.74232 | -42.95173 | 34571 ft | 492 kts | 46° |
| 2026-04-28 01:56 | 58.78706 | -42.85290 | 34572 ft | 492 kts | 46° |
| 2026-04-28 01:56 | 58.83169 | -42.75389 | 34574 ft | 493 kts | 46° |
| 2026-04-28 01:57 | 58.87648 | -42.65414 | 34574 ft | 493 kts | 46° |
| 2026-04-28 01:57 | 58.92136 | -42.55374 | 34572 ft | 494 kts | 46° |
| 2026-04-28 01:58 | 58.96607 | -42.45329 | 34570 ft | 493 kts | 46° |
| 2026-04-28 01:58 | 59.01037 | -42.35345 | 34565 ft | 493 kts | 46° |
| 2026-04-28 01:59 | 59.05500 | -42.25240 | 34561 ft | 494 kts | 47° |
| 2026-04-28 01:59 | 59.09942 | -42.15131 | 34555 ft | 495 kts | 47° |
| 2026-04-28 02:00 | 59.14384 | -42.04978 | 34551 ft | 495 kts | 47° |
| 2026-04-28 02:00 | 59.18827 | -41.94777 | 34547 ft | 495 kts | 47° |
| 2026-04-28 02:01 | 59.23271 | -41.84534 | 34544 ft | 496 kts | 47° |
| 2026-04-28 02:01 | 59.27711 | -41.74254 | 34555 ft | 496 kts | 48° |
| 2026-04-28 02:02 | 59.32108 | -41.64030 | 34560 ft | 497 kts | 48° |
| 2026-04-28 02:02 | 59.36550 | -41.53644 | 34552 ft | 498 kts | 48° |
| 2026-04-28 02:03 | 59.40958 | -41.43293 | 34547 ft | 498 kts | 48° |
| 2026-04-28 02:03 | 59.45396 | -41.32827 | 34547 ft | 498 kts | 49° |
| 2026-04-28 02:04 | 59.49786 | -41.22430 | 34548 ft | 499 kts | 49° |
| 2026-04-28 02:04 | 59.54196 | -41.11935 | 34547 ft | 500 kts | 49° |
| 2026-04-28 02:05 | 59.58610 | -41.01387 | 34546 ft | 500 kts | 49° |
| 2026-04-28 02:05 | 59.63032 | -40.90770 | 34542 ft | 501 kts | 49° |
| 2026-04-28 02:06 | 59.67405 | -40.80225 | 34538 ft | 501 kts | 49° |
| 2026-04-28 02:06 | 59.71798 | -40.69581 | 34530 ft | 502 kts | 49° |
| 2026-04-28 02:07 | 59.76185 | -40.58903 | 34525 ft | 503 kts | 50° |
| 2026-04-28 02:07 | 59.80592 | -40.48126 | 34517 ft | 504 kts | 50° |
| 2026-04-28 02:08 | 59.84958 | -40.37395 | 34513 ft | 504 kts | 50° |
| 2026-04-28 02:08 | 59.89372 | -40.26488 | 34510 ft | 505 kts | 51° |
| 2026-04-28 02:09 | 59.93754 | -40.15612 | 34508 ft | 506 kts | 51° |
| 2026-04-28 02:09 | 59.98112 | -40.04744 | 34513 ft | 507 kts | 51° |
| 2026-04-28 02:10 | 60.02394 | -39.93651 | 34515 ft | 507 kts | 53° |
| 2026-04-28 02:10 | 60.06578 | -39.82261 | 34522 ft | 507 kts | 53° |
| 2026-04-28 02:11 | 60.10701 | -39.70957 | 34523 ft | 507 kts | 53° |
| 2026-04-28 02:11 | 60.14856 | -39.59536 | 34521 ft | 507 kts | 53° |
| 2026-04-28 02:12 | 60.18969 | -39.48190 | 34518 ft | 507 kts | 53° |
| 2026-04-28 02:12 | 60.23122 | -39.36683 | 34515 ft | 507 kts | 53° |
| 2026-04-28 02:13 | 60.27224 | -39.25263 | 34512 ft | 507 kts | 54° |
| 2026-04-28 02:13 | 60.31316 | -39.13810 | 34512 ft | 507 kts | 55° |
| 2026-04-28 02:14 | 60.35413 | -39.02285 | 34511 ft | 507 kts | 55° |
| 2026-04-28 02:14 | 60.39496 | -38.90745 | 34513 ft | 507 kts | 55° |
| 2026-04-28 02:15 | 60.45585 | -38.73428 | 34513 ft | 507 kts | 55° |
| 2026-04-28 02:16 | 60.49645 | -38.61806 | 34514 ft | 507 kts | 55° |
| 2026-04-28 02:16 | 60.53699 | -38.50142 | 34512 ft | 508 kts | 56° |
| 2026-04-28 02:17 | 60.57748 | -38.38435 | 34509 ft | 508 kts | 56° |
| 2026-04-28 02:17 | 60.61775 | -38.26740 | 34505 ft | 509 kts | 57° |
| 2026-04-28 02:18 | 60.65823 | -38.14919 | 34498 ft | 509 kts | 57° |
| 2026-04-28 02:18 | 60.69839 | -38.03130 | 34491 ft | 509 kts | 57° |
| 2026-04-28 02:19 | 60.73835 | -37.91344 | 34480 ft | 509 kts | 57° |
| 2026-04-28 02:19 | 60.77838 | -37.79472 | 34474 ft | 510 kts | 57° |
| 2026-04-28 02:20 | 60.81847 | -37.67523 | 34480 ft | 510 kts | 57° |
| 2026-04-28 02:20 | 60.85834 | -37.55580 | 34472 ft | 510 kts | 57° |
| 2026-04-28 02:21 | 60.89809 | -37.43606 | 34453 ft | 510 kts | 57° |
| 2026-04-28 02:21 | 60.93789 | -37.31559 | 34446 ft | 510 kts | 58° |
| 2026-04-28 02:22 | 60.97745 | -37.19525 | 34445 ft | 509 kts | 58° |
| 2026-04-28 02:22 | 61.01670 | -37.07521 | 34443 ft | 509 kts | 58° |
| 2026-04-28 02:23 | 61.05600 | -36.95437 | 34441 ft | 509 kts | 59° |
| 2026-04-28 02:23 | 61.09516 | -36.83332 | 34434 ft | 509 kts | 59° |
| 2026-04-28 02:24 | 61.13405 | -36.71252 | 34430 ft | 509 kts | 59° |
| 2026-04-28 02:24 | 61.17305 | -36.59069 | 34428 ft | 510 kts | 59° |
| 2026-04-28 02:25 | 61.21191 | -36.46864 | 34424 ft | 510 kts | 59° |
| 2026-04-28 02:25 | 61.25084 | -36.34574 | 34420 ft | 510 kts | 60° |
| 2026-04-28 02:26 | 61.28952 | -36.22305 | 34414 ft | 510 kts | 60° |
| 2026-04-28 02:26 | 61.32784 | -36.10080 | 34411 ft | 510 kts | 60° |
| 2026-04-28 02:27 | 61.36623 | -35.97767 | 34407 ft | 509 kts | 60° |
| 2026-04-28 02:27 | 61.40476 | -35.85343 | 34412 ft | 509 kts | 60° |
| 2026-04-28 02:28 | 61.44282 | -35.73008 | 34434 ft | 509 kts | 60° |
| 2026-04-28 02:28 | 61.48124 | -35.60488 | 34443 ft | 510 kts | 60° |
| 2026-04-28 02:29 | 61.51923 | -35.48036 | 34441 ft | 510 kts | 60° |
| 2026-04-28 02:29 | 61.55706 | -35.35569 | 34443 ft | 510 kts | 61° |
| 2026-04-28 02:30 | 61.59489 | -35.23035 | 34458 ft | 510 kts | 62° |
| 2026-04-28 02:30 | 61.63241 | -35.10533 | 34472 ft | 510 kts | 62° |
| 2026-04-28 02:31 | 61.67001 | -34.97940 | 34481 ft | 510 kts | 62° |
| 2026-04-28 02:31 | 61.70735 | -34.85365 | 34482 ft | 510 kts | 62° |
| 2026-04-28 02:32 | 61.74479 | -34.72688 | 34481 ft | 510 kts | 62° |
| 2026-04-28 02:32 | 61.78201 | -34.60017 | 34479 ft | 510 kts | 62° |
| 2026-04-28 02:33 | 61.81903 | -34.47349 | 34472 ft | 510 kts | 62° |
| 2026-04-28 02:33 | 61.85619 | -34.34580 | 34470 ft | 510 kts | 63° |
| 2026-04-28 02:34 | 61.89299 | -34.21854 | 34460 ft | 510 kts | 63° |
| 2026-04-28 02:34 | 61.92965 | -34.09106 | 34456 ft | 510 kts | 64° |
| 2026-04-28 02:35 | 61.96637 | -33.96238 | 34454 ft | 510 kts | 64° |
| 2026-04-28 02:35 | 62.00263 | -33.83424 | 34452 ft | 510 kts | 64° |
| 2026-04-28 02:36 | 62.03915 | -33.70499 | 34455 ft | 510 kts | 64° |
| 2026-04-28 02:36 | 62.07535 | -33.57632 | 34457 ft | 510 kts | 64° |
| 2026-04-28 02:37 | 62.11142 | -33.44677 | 34454 ft | 510 kts | 64° |
| 2026-04-28 02:37 | 62.14728 | -33.31768 | 34459 ft | 509 kts | 65° |
| 2026-04-28 02:38 | 62.18325 | -33.18749 | 34469 ft | 508 kts | 65° |
| 2026-04-28 02:38 | 62.21885 | -33.05775 | 34477 ft | 508 kts | 65° |
| 2026-04-28 02:39 | 62.25442 | -32.92732 | 34485 ft | 508 kts | 65° |
| 2026-04-28 02:39 | 62.28977 | -32.79694 | 34490 ft | 507 kts | 65° |
| 2026-04-28 02:40 | 62.32483 | -32.66689 | 34495 ft | 508 kts | 65° |
| 2026-04-28 02:40 | 62.35997 | -32.53577 | 34497 ft | 508 kts | 65° |
| 2026-04-28 02:41 | 62.39516 | -32.40366 | 34499 ft | 509 kts | 65° |
| 2026-04-28 02:41 | 62.43016 | -32.27156 | 34499 ft | 509 kts | 66° |
| 2026-04-28 02:42 | 62.46488 | -32.13975 | 34497 ft | 510 kts | 66° |
| 2026-04-28 02:42 | 62.49960 | -32.00709 | 34496 ft | 510 kts | 66° |
| 2026-04-28 02:43 | 62.53436 | -31.87349 | 34492 ft | 510 kts | 67° |
| 2026-04-28 02:43 | 62.56883 | -31.74017 | 34497 ft | 510 kts | 67° |
| 2026-04-28 02:44 | 62.60310 | -31.60689 | 34508 ft | 510 kts | 67° |
| 2026-04-28 02:44 | 62.63752 | -31.47223 | 34509 ft | 509 kts | 67° |
| 2026-04-28 02:45 | 62.67154 | -31.33826 | 34505 ft | 509 kts | 68° |
| 2026-04-28 02:45 | 62.70536 | -31.20433 | 34507 ft | 508 kts | 68° |
| 2026-04-28 02:46 | 62.73912 | -31.06970 | 34514 ft | 508 kts | 68° |
| 2026-04-28 02:46 | 62.77259 | -30.93547 | 34520 ft | 508 kts | 68° |
| 2026-04-28 02:47 | 62.80622 | -30.79981 | 34536 ft | 507 kts | 68° |
| 2026-04-28 02:47 | 62.83939 | -30.66515 | 34555 ft | 507 kts | 68° |
| 2026-04-28 02:48 | 62.87251 | -30.52977 | 34567 ft | 507 kts | 68° |
| 2026-04-28 02:48 | 62.90555 | -30.39388 | 34574 ft | 507 kts | 68° |
| 2026-04-28 02:49 | 62.93845 | -30.25778 | 34579 ft | 507 kts | 69° |
| 2026-04-28 02:49 | 62.97110 | -30.12172 | 34584 ft | 506 kts | 69° |
| 2026-04-28 02:50 | 63.00085 | -29.98257 | 34588 ft | 500 kts | 76° |
| 2026-04-28 02:50 | 63.02259 | -29.83952 | 34605 ft | 495 kts | 81° |
| 2026-04-28 02:51 | 63.04179 | -29.69495 | 34638 ft | 495 kts | 82° |
| 2026-04-28 02:51 | 63.06100 | -29.54930 | 34652 ft | 496 kts | 82° |
| 2026-04-28 02:52 | 63.08016 | -29.40408 | 34634 ft | 496 kts | 82° |
| 2026-04-28 02:52 | 63.09920 | -29.25893 | 34637 ft | 496 kts | 83° |
| 2026-04-28 02:53 | 63.11821 | -29.11271 | 34646 ft | 496 kts | 83° |
| 2026-04-28 02:53 | 63.13697 | -28.96709 | 34656 ft | 496 kts | 83° |
| 2026-04-28 02:54 | 63.15568 | -28.82071 | 34668 ft | 496 kts | 83° |
| 2026-04-28 02:54 | 63.17421 | -28.67431 | 34675 ft | 496 kts | 83° |
| 2026-04-28 02:55 | 63.19258 | -28.52768 | 34682 ft | 496 kts | 83° |
| 2026-04-28 02:55 | 63.21075 | -28.38119 | 34686 ft | 496 kts | 83° |
| 2026-04-28 02:56 | 63.22887 | -28.23389 | 34687 ft | 496 kts | 84° |
| 2026-04-28 02:56 | 63.24671 | -28.08731 | 34691 ft | 495 kts | 84° |
| 2026-04-28 02:57 | 63.26434 | -27.94091 | 34691 ft | 496 kts | 84° |
| 2026-04-28 02:57 | 63.28196 | -27.79318 | 34709 ft | 496 kts | 84° |
| 2026-04-28 02:58 | 63.29948 | -27.64500 | 34741 ft | 496 kts | 84° |
| 2026-04-28 02:58 | 63.31673 | -27.49770 | 34587 ft | 496 kts | 84° |
| 2026-04-28 02:58 | 63.32525 | -27.42446 | 34395 ft | 494 kts | 84° |
| 2026-04-28 02:59 | 63.33381 | -27.35042 | 34200 ft | 492 kts | 84° |
| 2026-04-28 02:59 | 63.34226 | -27.27705 | 34002 ft | 490 kts | 85° |
| 2026-04-28 02:59 | 63.35059 | -27.20409 | 33704 ft | 488 kts | 86° |
| 2026-04-28 02:59 | 63.35882 | -27.13158 | 33255 ft | 487 kts | 86° |
| 2026-04-28 03:00 | 63.36703 | -27.05858 | 32654 ft | 489 kts | 86° |
| 2026-04-28 03:00 | 63.37526 | -26.98502 | 31993 ft | 493 kts | 86° |
| 2026-04-28 03:00 | 63.38382 | -26.91113 | 31263 ft | 500 kts | 84° |
| 2026-04-28 03:00 | 63.39392 | -26.83736 | 30702 ft | 499 kts | 82° |
| 2026-04-28 03:01 | 63.40450 | -26.76429 | 30265 ft | 494 kts | 81° |
| 2026-04-28 03:01 | 63.41496 | -26.69268 | 29830 ft | 489 kts | 82° |
| 2026-04-28 03:01 | 63.42541 | -26.62068 | 29362 ft | 485 kts | 82° |
| 2026-04-28 03:01 | 63.43560 | -26.54969 | 28886 ft | 480 kts | 82° |
| 2026-04-28 03:02 | 63.44561 | -26.47935 | 28421 ft | 476 kts | 82° |
| 2026-04-28 03:02 | 63.45549 | -26.40949 | 27965 ft | 471 kts | 82° |
| 2026-04-28 03:02 | 63.46523 | -26.34015 | 27517 ft | 467 kts | 83° |
| 2026-04-28 03:02 | 63.47481 | -26.27175 | 27083 ft | 462 kts | 83° |
| 2026-04-28 03:03 | 63.48428 | -26.20382 | 26646 ft | 458 kts | 83° |
| 2026-04-28 03:03 | 63.49362 | -26.13642 | 26210 ft | 454 kts | 84° |
| 2026-04-28 03:03 | 63.50290 | -26.06920 | 25775 ft | 450 kts | 84° |
| 2026-04-28 03:03 | 63.51195 | -26.00336 | 25354 ft | 447 kts | 84° |
| 2026-04-28 03:04 | 63.52105 | -25.93689 | 24929 ft | 444 kts | 84° |
| 2026-04-28 03:04 | 63.53001 | -25.87131 | 24507 ft | 440 kts | 84° |
| 2026-04-28 03:04 | 63.53878 | -25.80679 | 24090 ft | 437 kts | 84° |
| 2026-04-28 03:04 | 63.54757 | -25.74179 | 23663 ft | 434 kts | 84° |
| 2026-04-28 03:05 | 63.55616 | -25.67798 | 23240 ft | 432 kts | 84° |
| 2026-04-28 03:05 | 63.56487 | -25.61313 | 22805 ft | 429 kts | 84° |
| 2026-04-28 03:05 | 63.57338 | -25.54950 | 22389 ft | 427 kts | 84° |
| 2026-04-28 03:05 | 63.58174 | -25.48673 | 21981 ft | 426 kts | 84° |
| 2026-04-28 03:06 | 63.59016 | -25.42329 | 21557 ft | 424 kts | 84° |
| 2026-04-28 03:06 | 63.59855 | -25.35976 | 21123 ft | 423 kts | 84° |
| 2026-04-28 03:06 | 63.60680 | -25.29725 | 20689 ft | 421 kts | 85° |
| 2026-04-28 03:06 | 63.61503 | -25.23451 | 20251 ft | 420 kts | 84° |
| 2026-04-28 03:07 | 63.62320 | -25.17201 | 19814 ft | 418 kts | 84° |
| 2026-04-28 03:07 | 63.63133 | -25.10954 | 19377 ft | 416 kts | 84° |
| 2026-04-28 03:07 | 63.63941 | -25.04724 | 18940 ft | 414 kts | 84° |
| 2026-04-28 03:07 | 63.64736 | -24.98565 | 18508 ft | 412 kts | 84° |
| 2026-04-28 03:08 | 63.65522 | -24.92451 | 18083 ft | 410 kts | 84° |
| 2026-04-28 03:08 | 63.66312 | -24.86287 | 17653 ft | 408 kts | 84° |
| 2026-04-28 03:08 | 63.67109 | -24.80191 | 17229 ft | 408 kts | 81° |
| 2026-04-28 03:08 | 63.68128 | -24.74279 | 16815 ft | 413 kts | 73° |
| 2026-04-28 03:09 | 63.69458 | -24.68499 | 16402 ft | 416 kts | 68° |
| 2026-04-28 03:09 | 63.70907 | -24.62855 | 15976 ft | 415 kts | 66° |
| 2026-04-28 03:09 | 63.72355 | -24.57341 | 15553 ft | 413 kts | 66° |
| 2026-04-28 03:09 | 63.73805 | -24.51793 | 15127 ft | 410 kts | 66° |
| 2026-04-28 03:10 | 63.75228 | -24.46294 | 14708 ft | 406 kts | 66° |
| 2026-04-28 03:10 | 63.76628 | -24.40821 | 14293 ft | 403 kts | 66° |
| 2026-04-28 03:10 | 63.78014 | -24.35364 | 13878 ft | 400 kts | 66° |
| 2026-04-28 03:10 | 63.79380 | -24.29962 | 13468 ft | 395 kts | 68° |
| 2026-04-28 03:11 | 63.80725 | -24.24623 | 13059 ft | 391 kts | 67° |
| 2026-04-28 03:11 | 63.82072 | -24.19271 | 12649 ft | 387 kts | 67° |
| 2026-04-28 03:11 | 63.83387 | -24.14035 | 12251 ft | 383 kts | 67° |
| 2026-04-28 03:11 | 63.84682 | -24.08869 | 11861 ft | 379 kts | 68° |
| 2026-04-28 03:12 | 63.85968 | -24.03714 | 11476 ft | 376 kts | 68° |
| 2026-04-28 03:12 | 63.87245 | -23.98581 | 11097 ft | 372 kts | 68° |
| 2026-04-28 03:12 | 63.88500 | -23.93521 | 10725 ft | 369 kts | 68° |
| 2026-04-28 03:12 | 63.89745 | -23.88482 | 10352 ft | 365 kts | 68° |
| 2026-04-28 03:13 | 63.90973 | -23.83507 | 10056 ft | 358 kts | 67° |
| 2026-04-28 03:13 | 63.92164 | -23.78696 | 9940 ft | 344 kts | 67° |
| 2026-04-28 03:13 | 63.93310 | -23.74065 | 9831 ft | 331 kts | 67° |
| 2026-04-28 03:13 | 63.94415 | -23.69585 | 9608 ft | 325 kts | 68° |
| 2026-04-28 03:14 | 63.95515 | -23.65099 | 9227 ft | 323 kts | 68° |
| 2026-04-28 03:14 | 63.96594 | -23.60664 | 8867 ft | 322 kts | 68° |
| 2026-04-28 03:14 | 63.97668 | -23.56250 | 8525 ft | 319 kts | 67° |
| 2026-04-28 03:14 | 63.98745 | -23.51821 | 8189 ft | 317 kts | 67° |
| 2026-04-28 03:15 | 63.99797 | -23.47506 | 7867 ft | 315 kts | 67° |
| 2026-04-28 03:15 | 64.00851 | -23.43170 | 7544 ft | 311 kts | 67° |
| 2026-04-28 03:15 | 64.01895 | -23.38861 | 7224 ft | 308 kts | 67° |
| 2026-04-28 03:15 | 64.02916 | -23.34628 | 6910 ft | 305 kts | 68° |
| 2026-04-28 03:16 | 64.03928 | -23.30441 | 6637 ft | 300 kts | 68° |
| 2026-04-28 03:16 | 64.04923 | -23.26320 | 6373 ft | 293 kts | 68° |
| 2026-04-28 03:16 | 64.05894 | -23.22277 | 6097 ft | 289 kts | 68° |
| 2026-04-28 03:16 | 64.06837 | -23.18345 | 5827 ft | 284 kts | 68° |
| 2026-04-28 03:17 | 64.07777 | -23.14416 | 5546 ft | 279 kts | 68° |
| 2026-04-28 03:17 | 64.09607 | -23.06785 | 5011 ft | 270 kts | 68° |
| 2026-04-28 03:17 | 64.10494 | -23.03056 | 4737 ft | 266 kts | 69° |
| 2026-04-28 03:18 | 64.11356 | -22.99413 | 4469 ft | 261 kts | 69° |
| 2026-04-28 03:18 | 64.12223 | -22.95757 | 4181 ft | 257 kts | 69° |
| 2026-04-28 03:18 | 64.13067 | -22.92200 | 3895 ft | 254 kts | 69° |
| 2026-04-28 03:18 | 64.13897 | -22.88668 | 3615 ft | 251 kts | 69° |
| 2026-04-28 03:19 | 64.14715 | -22.85184 | 3457 ft | 251 kts | 69° |
| 2026-04-28 03:19 | 64.15544 | -22.81666 | 3364 ft | 250 kts | 68° |
| 2026-04-28 03:19 | 64.16182 | -22.78098 | 3267 ft | 238 kts | 92° |
| 2026-04-28 03:19 | 64.15952 | -22.74629 | 3068 ft | 213 kts | 120° |
| 2026-04-28 03:20 | 64.15383 | -22.71549 | 2909 ft | 203 kts | 121° |
| 2026-04-28 03:20 | 64.14856 | -22.68672 | 2803 ft | 196 kts | 121° |
| 2026-04-28 03:20 | 64.14349 | -22.65751 | 2681 ft | 197 kts | 120° |
| 2026-04-28 03:20 | 64.13861 | -22.62809 | 2487 ft | 197 kts | 120° |
| 2026-04-28 03:21 | 64.13217 | -22.60213 | 2216 ft | 181 kts | 151° |
| 2026-04-28 03:21 | 64.12122 | -22.59595 | 2268 ft | 158 kts | 187° |
| 2026-04-28 03:21 | 64.11060 | -22.60000 | 2278 ft | 154 kts | 187° |
| 2026-04-28 03:21 | 64.09997 | -22.60281 | 2232 ft | 154 kts | 185° |
| 2026-04-28 03:22 | 64.08920 | -22.60462 | 2139 ft | 155 kts | 182° |
| 2026-04-28 03:22 | 64.07855 | -22.60537 | 1918 ft | 153 kts | 180° |
| 2026-04-28 03:22 | 64.06857 | -22.60541 | 1724 ft | 135 kts | 180° |
| 2026-04-28 03:22 | 64.05972 | -22.60542 | 1504 ft | 120 kts | 180° |
| 2026-04-28 03:23 | 64.05139 | -22.60543 | 1344 ft | 119 kts | 180° |
| 2026-04-28 03:23 | 64.04318 | -22.60544 | 1194 ft | 119 kts | 180° |
| 2026-04-28 03:23 | 64.03490 | -22.60544 | 1041 ft | 119 kts | 179° |
| 2026-04-28 03:23 | 64.02656 | -22.60545 | 879 ft | 120 kts | 179° |
| 2026-04-28 03:24 | 64.01823 | -22.60554 | 719 ft | 124 kts | 180° |
| 2026-04-28 03:24 | 64.00910 | -22.60561 | 655 ft | 132 kts | 180° |
| 2026-04-28 03:24 | 64.00043 | -22.60583 | 466 ft | 120 kts | 178° |
| 2026-04-28 03:24 | 63.99205 | -22.60554 | 222 ft | 120 kts | 179° |
| 2026-04-28 03:25 | 63.98441 | -22.60554 | 159 ft | 93 kts | 179° |
| 2026-04-28 03:25 | 63.97939 | -22.60549 | 162 ft | 55 kts | 180° |
| 2026-04-28 03:25 | 63.97621 | -22.60547 | 158 ft | 31 kts | 179° |
| 2026-04-28 03:25 | 63.97455 | -22.60607 | 153 ft | 19 kts | 226° |
| 2026-04-28 03:26 | 63.97454 | -22.60877 | 148 ft | 15 kts | 295° |
| 2026-04-28 03:26 | 63.97547 | -22.60948 | 149 ft | 15 kts | 359° |
| 2026-04-28 03:26 | 63.97659 | -22.60947 | 151 ft | 16 kts | 0° |
| 2026-04-28 03:26 | 63.97784 | -22.60945 | 151 ft | 19 kts | 1° |
| 2026-04-28 03:27 | 63.97921 | -22.60948 | 153 ft | 19 kts | 358° |
| 2026-04-28 03:27 | 63.98055 | -22.60948 | 154 ft | 18 kts | 1° |
| 2026-04-28 03:27 | 63.98185 | -22.60947 | 155 ft | 18 kts | 1° |
| 2026-04-28 03:27 | 63.98316 | -22.60948 | 154 ft | 19 kts | 359° |
| 2026-04-28 03:28 | 63.98455 | -22.60945 | 151 ft | 20 kts | 0° |
| 2026-04-28 03:28 | 63.98596 | -22.60946 | 151 ft | 20 kts | 359° |
| 2026-04-28 03:28 | 63.98738 | -22.60948 | 151 ft | 20 kts | 359° |
| 2026-04-28 03:28 | 63.98880 | -22.60949 | 149 ft | 21 kts | 359° |
| 2026-04-28 03:29 | 63.99031 | -22.60947 | 147 ft | 22 kts | 0° |
| 2026-04-28 03:29 | 63.99156 | -22.60975 | 147 ft | 16 kts | 320° |
| 2026-04-28 03:29 | 63.99172 | -22.61223 | 146 ft | 16 kts | 269° |
| 2026-04-28 03:29 | 63.99172 | -22.61487 | 143 ft | 16 kts | 269° |
| 2026-04-28 03:30 | 63.99173 | -22.61739 | 143 ft | 15 kts | 274° |
| 2026-04-28 03:30 | 63.99181 | -22.61959 | 143 ft | 12 kts | 310° |
| 2026-04-28 03:30 | 63.99235 | -22.62075 | 143 ft | 9 kts | 284° |
| 2026-04-28 03:30 | 63.99269 | -22.62173 | 143 ft | 5 kts | 319° |
| 2026-04-28 03:31 | 63.99284 | -22.62203 | 143 ft | 0 kts | 319° |